sensor_id;sensor_type;location;lat;lon;timestamp;temperature;humidity
66740;DHT22;53653;52.188;8.602;2023-12-20T00:00:56;7.11;94.69
66740;DHT22;53653;52.188;8.602;2023-12-20T00:03:21;7.11;94.67
66740;DHT22;53653;52.188;8.602;2023-12-20T00:05:47;7.10;94.62
66740;DHT22;53653;52.188;8.602;2023-12-20T00:08:13;7.13;94.44
66740;DHT22;53653;52.188;8.602;2023-12-20T00:10:39;7.13;94.61
66740;DHT22;53653;52.188;8.602;2023-12-20T00:13:04;7.11;94.82
66740;DHT22;53653;52.188;8.602;2023-12-20T00:15:30;7.10;94.72
66740;DHT22;53653;52.188;8.602;2023-12-20T00:17:55;7.13;94.67
66740;DHT22;53653;52.188;8.602;2023-12-20T00:20:21;7.14;94.75
66740;DHT22;53653;52.188;8.602;2023-12-20T00:22:46;7.16;94.60
66740;DHT22;53653;52.188;8.602;2023-12-20T00:25:12;7.11;94.69
66740;DHT22;53653;52.188;8.602;2023-12-20T00:27:37;7.11;94.59
66740;DHT22;53653;52.188;8.602;2023-12-20T00:30:03;7.14;94.72
66740;DHT22;53653;52.188;8.602;2023-12-20T00:32:29;7.10;94.67
66740;DHT22;53653;52.188;8.602;2023-12-20T00:34:55;7.13;94.56
66740;DHT22;53653;52.188;8.602;2023-12-20T00:37:21;7.10;94.69
66740;DHT22;53653;52.188;8.602;2023-12-20T00:39:46;7.06;94.87
66740;DHT22;53653;52.188;8.602;2023-12-20T00:42:12;7.07;94.81
66740;DHT22;53653;52.188;8.602;2023-12-20T00:44:37;7.10;94.51
66740;DHT22;53653;52.188;8.602;2023-12-20T00:47:03;7.08;94.27
66740;DHT22;53653;52.188;8.602;2023-12-20T00:49:29;7.08;94.27
66740;DHT22;53653;52.188;8.602;2023-12-20T00:51:54;7.08;94.28
66740;DHT22;53653;52.188;8.602;2023-12-20T00:54:20;7.06;94.03
66740;DHT22;53653;52.188;8.602;2023-12-20T00:56:45;7.10;94.03
66740;DHT22;53653;52.188;8.602;2023-12-20T00:59:10;7.06;93.93
66740;DHT22;53653;52.188;8.602;2023-12-20T01:01:36;7.00;94.09
66740;DHT22;53653;52.188;8.602;2023-12-20T01:04:01;7.00;94.01
66740;DHT22;53653;52.188;8.602;2023-12-20T01:06:27;7.06;93.76
66740;DHT22;53653;52.188;8.602;2023-12-20T01:08:52;6.99;93.85
66740;DHT22;53653;52.188;8.602;2023-12-20T01:11:18;6.90;93.94
66740;DHT22;53653;52.188;8.602;2023-12-20T01:13:43;6.89;94.05
66740;DHT22;53653;52.188;8.602;2023-12-20T01:16:10;6.95;93.89
66740;DHT22;53653;52.188;8.602;2023-12-20T01:18:36;6.93;93.73
66740;DHT22;53653;52.188;8.602;2023-12-20T01:21:02;6.99;93.80
66740;DHT22;53653;52.188;8.602;2023-12-20T01:23:28;6.92;93.64
66740;DHT22;53653;52.188;8.602;2023-12-20T01:25:54;6.87;93.42
66740;DHT22;53653;52.188;8.602;2023-12-20T01:28:20;6.90;93.66
66740;DHT22;53653;52.188;8.602;2023-12-20T01:30:45;6.86;93.55
66740;DHT22;53653;52.188;8.602;2023-12-20T01:33:11;6.85;93.54
66740;DHT22;53653;52.188;8.602;2023-12-20T01:35:36;6.85;93.56
66740;DHT22;53653;52.188;8.602;2023-12-20T01:38:02;6.79;93.48
66740;DHT22;53653;52.188;8.602;2023-12-20T01:40:28;6.75;93.15
66740;DHT22;53653;52.188;8.602;2023-12-20T01:43:09;6.72;93.27
66740;DHT22;53653;52.188;8.602;2023-12-20T01:45:35;6.68;93.31
66740;DHT22;53653;52.188;8.602;2023-12-20T01:48:01;6.65;93.26
66740;DHT22;53653;52.188;8.602;2023-12-20T01:50:28;6.59;93.14
66740;DHT22;53653;52.188;8.602;2023-12-20T01:52:55;6.61;92.96
66740;DHT22;53653;52.188;8.602;2023-12-20T01:55:25;6.56;92.87
66740;DHT22;53653;52.188;8.602;2023-12-20T01:57:52;6.52;92.77
66740;DHT22;53653;52.188;8.602;2023-12-20T02:00:19;6.45;92.80
66740;DHT22;53653;52.188;8.602;2023-12-20T02:02:50;6.37;92.99
66740;DHT22;53653;52.188;8.602;2023-12-20T02:05:16;6.35;93.08
66740;DHT22;53653;52.188;8.602;2023-12-20T02:07:42;6.32;93.26
66740;DHT22;53653;52.188;8.602;2023-12-20T02:10:08;6.37;92.83
66740;DHT22;53653;52.188;8.602;2023-12-20T02:12:34;6.44;92.49
66740;DHT22;53653;52.188;8.602;2023-12-20T02:14:59;6.38;92.47
66740;DHT22;53653;52.188;8.602;2023-12-20T02:17:25;6.35;92.31
66740;DHT22;53653;52.188;8.602;2023-12-20T02:19:51;6.30;92.27
66740;DHT22;53653;52.188;8.602;2023-12-20T02:22:16;6.24;92.16
66740;DHT22;53653;52.188;8.602;2023-12-20T02:24:42;6.18;92.25
66740;DHT22;53653;52.188;8.602;2023-12-20T02:27:08;6.25;92.08
66740;DHT22;53653;52.188;8.602;2023-12-20T02:29:34;6.17;92.15
66740;DHT22;53653;52.188;8.602;2023-12-20T02:32:00;6.13;92.17
66740;DHT22;53653;52.188;8.602;2023-12-20T02:34:26;6.13;92.27
66740;DHT22;53653;52.188;8.602;2023-12-20T02:36:51;6.11;92.32
66740;DHT22;53653;52.188;8.602;2023-12-20T02:39:19;6.06;92.35
66740;DHT22;53653;52.188;8.602;2023-12-20T02:41:45;6.06;92.47
66740;DHT22;53653;52.188;8.602;2023-12-20T02:44:10;5.99;92.52
66740;DHT22;53653;52.188;8.602;2023-12-20T02:46:36;6.03;92.57
66740;DHT22;53653;52.188;8.602;2023-12-20T02:49:01;6.00;92.54
66740;DHT22;53653;52.188;8.602;2023-12-20T02:51:26;5.94;92.70
66740;DHT22;53653;52.188;8.602;2023-12-20T02:53:52;5.96;92.63
66740;DHT22;53653;52.188;8.602;2023-12-20T02:56:17;5.97;92.72
66740;DHT22;53653;52.188;8.602;2023-12-20T02:58:43;5.97;92.76
66740;DHT22;53653;52.188;8.602;2023-12-20T03:01:08;6.03;92.83
66740;DHT22;53653;52.188;8.602;2023-12-20T03:03:34;6.09;92.76
66740;DHT22;53653;52.188;8.602;2023-12-20T03:06:00;6.11;92.70
66740;DHT22;53653;52.188;8.602;2023-12-20T03:08:25;6.17;92.68
66740;DHT22;53653;52.188;8.602;2023-12-20T03:10:50;6.16;92.80
66740;DHT22;53653;52.188;8.602;2023-12-20T03:13:16;6.16;92.76
66740;DHT22;53653;52.188;8.602;2023-12-20T03:15:42;6.21;92.58
66740;DHT22;53653;52.188;8.602;2023-12-20T03:18:07;6.22;92.61
66740;DHT22;53653;52.188;8.602;2023-12-20T03:20:32;6.24;92.48
66740;DHT22;53653;52.188;8.602;2023-12-20T03:23:01;6.28;92.34
66740;DHT22;53653;52.188;8.602;2023-12-20T03:25:26;6.27;92.48
66740;DHT22;53653;52.188;8.602;2023-12-20T03:27:52;6.24;92.59
66740;DHT22;53653;52.188;8.602;2023-12-20T03:30:18;6.28;92.59
66740;DHT22;53653;52.188;8.602;2023-12-20T03:32:43;6.24;92.53
66740;DHT22;53653;52.188;8.602;2023-12-20T03:35:09;6.27;92.58
66740;DHT22;53653;52.188;8.602;2023-12-20T03:37:34;6.30;92.47
66740;DHT22;53653;52.188;8.602;2023-12-20T03:40:00;6.25;92.36
66740;DHT22;53653;52.188;8.602;2023-12-20T03:42:25;6.28;92.48
66740;DHT22;53653;52.188;8.602;2023-12-20T03:44:51;6.31;92.26
66740;DHT22;53653;52.188;8.602;2023-12-20T03:47:16;6.34;92.17
66740;DHT22;53653;52.188;8.602;2023-12-20T03:49:41;6.37;91.94
66740;DHT22;53653;52.188;8.602;2023-12-20T03:52:07;6.35;91.95
66740;DHT22;53653;52.188;8.602;2023-12-20T03:54:34;6.37;91.90
66740;DHT22;53653;52.188;8.602;2023-12-20T03:57:00;6.38;91.90
66740;DHT22;53653;52.188;8.602;2023-12-20T03:59:25;6.38;91.86
66740;DHT22;53653;52.188;8.602;2023-12-20T04:01:51;6.35;92.10
66740;DHT22;53653;52.188;8.602;2023-12-20T04:04:16;6.37;91.97
66740;DHT22;53653;52.188;8.602;2023-12-20T04:06:41;6.34;91.90
66740;DHT22;53653;52.188;8.602;2023-12-20T04:09:07;6.28;92.06
66740;DHT22;53653;52.188;8.602;2023-12-20T04:11:34;6.32;91.99
66740;DHT22;53653;52.188;8.602;2023-12-20T04:14:00;6.37;91.81
66740;DHT22;53653;52.188;8.602;2023-12-20T04:16:26;6.37;91.92
66740;DHT22;53653;52.188;8.602;2023-12-20T04:18:51;6.34;91.86
66740;DHT22;53653;52.188;8.602;2023-12-20T04:21:17;6.31;91.97
66740;DHT22;53653;52.188;8.602;2023-12-20T04:23:43;6.31;91.90
66740;DHT22;53653;52.188;8.602;2023-12-20T04:26:09;6.25;92.18
66740;DHT22;53653;52.188;8.602;2023-12-20T04:28:34;6.25;92.13
66740;DHT22;53653;52.188;8.602;2023-12-20T04:31:00;6.28;92.18
66740;DHT22;53653;52.188;8.602;2023-12-20T04:33:25;6.25;92.25
66740;DHT22;53653;52.188;8.602;2023-12-20T04:35:50;6.27;92.13
66740;DHT22;53653;52.188;8.602;2023-12-20T04:38:16;6.24;92.25
66740;DHT22;53653;52.188;8.602;2023-12-20T04:40:42;6.22;92.25
66740;DHT22;53653;52.188;8.602;2023-12-20T04:43:08;6.27;92.20
66740;DHT22;53653;52.188;8.602;2023-12-20T04:45:34;6.25;92.12
66740;DHT22;53653;52.188;8.602;2023-12-20T04:48:01;6.32;92.01
66740;DHT22;53653;52.188;8.602;2023-12-20T04:50:27;6.28;91.98
66740;DHT22;53653;52.188;8.602;2023-12-20T04:52:53;6.28;91.90
66740;DHT22;53653;52.188;8.602;2023-12-20T04:55:18;6.27;91.88
66740;DHT22;53653;52.188;8.602;2023-12-20T04:57:44;6.24;92.06
66740;DHT22;53653;52.188;8.602;2023-12-20T05:00:09;6.28;91.89
66740;DHT22;53653;52.188;8.602;2023-12-20T05:02:36;6.25;91.99
66740;DHT22;53653;52.188;8.602;2023-12-20T05:05:01;6.34;91.75
66740;DHT22;53653;52.188;8.602;2023-12-20T05:07:27;6.35;91.70
66740;DHT22;53653;52.188;8.602;2023-12-20T05:09:52;6.37;91.70
66740;DHT22;53653;52.188;8.602;2023-12-20T05:12:18;6.37;91.78
66740;DHT22;53653;52.188;8.602;2023-12-20T05:14:44;6.32;91.82
66740;DHT22;53653;52.188;8.602;2023-12-20T05:17:09;6.31;91.85
66740;DHT22;53653;52.188;8.602;2023-12-20T05:19:35;6.31;91.86
66740;DHT22;53653;52.188;8.602;2023-12-20T05:22:01;6.30;91.87
66740;DHT22;53653;52.188;8.602;2023-12-20T05:24:27;6.30;91.88
66740;DHT22;53653;52.188;8.602;2023-12-20T05:26:52;6.31;91.75
66740;DHT22;53653;52.188;8.602;2023-12-20T05:29:18;6.32;91.75
66740;DHT22;53653;52.188;8.602;2023-12-20T05:31:43;6.27;91.74
66740;DHT22;53653;52.188;8.602;2023-12-20T05:34:09;6.22;91.98
66740;DHT22;53653;52.188;8.602;2023-12-20T05:36:34;6.27;91.79
66740;DHT22;53653;52.188;8.602;2023-12-20T05:39:00;6.25;91.87
66740;DHT22;53653;52.188;8.602;2023-12-20T05:41:25;6.30;91.79
66740;DHT22;53653;52.188;8.602;2023-12-20T05:43:57;6.25;91.87
66740;DHT22;53653;52.188;8.602;2023-12-20T05:46:23;6.27;91.93
66740;DHT22;53653;52.188;8.602;2023-12-20T05:48:49;6.25;92.19
66740;DHT22;53653;52.188;8.602;2023-12-20T05:51:15;6.27;92.17
66740;DHT22;53653;52.188;8.602;2023-12-20T05:53:40;6.24;92.25
66740;DHT22;53653;52.188;8.602;2023-12-20T05:56:06;6.24;92.37
66740;DHT22;53653;52.188;8.602;2023-12-20T05:58:32;6.20;92.30
66740;DHT22;53653;52.188;8.602;2023-12-20T06:00:58;6.22;92.35
66740;DHT22;53653;52.188;8.602;2023-12-20T06:03:23;6.22;92.14
66740;DHT22;53653;52.188;8.602;2023-12-20T06:05:49;6.25;91.81
66740;DHT22;53653;52.188;8.602;2023-12-20T06:08:14;6.27;91.65
66740;DHT22;53653;52.188;8.602;2023-12-20T06:10:40;6.27;91.48
66740;DHT22;53653;52.188;8.602;2023-12-20T06:13:05;6.30;91.24
66740;DHT22;53653;52.188;8.602;2023-12-20T06:15:32;6.34;90.95
66740;DHT22;53653;52.188;8.602;2023-12-20T06:17:58;6.32;90.81
66740;DHT22;53653;52.188;8.602;2023-12-20T06:20:24;6.34;90.65
66740;DHT22;53653;52.188;8.602;2023-12-20T06:22:50;6.34;90.72
66740;DHT22;53653;52.188;8.602;2023-12-20T06:25:16;6.35;90.80
66740;DHT22;53653;52.188;8.602;2023-12-20T06:27:41;6.37;90.78
66740;DHT22;53653;52.188;8.602;2023-12-20T06:30:08;6.39;90.88
66740;DHT22;53653;52.188;8.602;2023-12-20T06:32:36;6.41;90.68
66740;DHT22;53653;52.188;8.602;2023-12-20T06:35:03;6.37;90.60
66740;DHT22;53653;52.188;8.602;2023-12-20T06:37:30;6.35;90.49
66740;DHT22;53653;52.188;8.602;2023-12-20T06:39:55;6.37;90.63
66740;DHT22;53653;52.188;8.602;2023-12-20T06:42:22;6.39;90.47
66740;DHT22;53653;52.188;8.602;2023-12-20T06:44:48;6.42;90.37
66740;DHT22;53653;52.188;8.602;2023-12-20T06:47:13;6.44;90.67
66740;DHT22;53653;52.188;8.602;2023-12-20T06:49:40;6.41;90.59
66740;DHT22;53653;52.188;8.602;2023-12-20T06:52:05;6.38;90.80
66740;DHT22;53653;52.188;8.602;2023-12-20T06:54:31;6.38;91.00
66740;DHT22;53653;52.188;8.602;2023-12-20T06:56:59;6.37;91.10
66740;DHT22;53653;52.188;8.602;2023-12-20T06:59:25;6.41;91.16
66740;DHT22;53653;52.188;8.602;2023-12-20T07:01:51;6.34;91.19
66740;DHT22;53653;52.188;8.602;2023-12-20T07:04:16;6.38;91.30
66740;DHT22;53653;52.188;8.602;2023-12-20T07:06:46;6.35;91.19
66740;DHT22;53653;52.188;8.602;2023-12-20T07:09:11;6.34;91.52
66740;DHT22;53653;52.188;8.602;2023-12-20T07:11:38;6.34;91.39
66740;DHT22;53653;52.188;8.602;2023-12-20T07:14:04;6.38;91.24
66740;DHT22;53653;52.188;8.602;2023-12-20T07:16:29;6.41;91.13
66740;DHT22;53653;52.188;8.602;2023-12-20T07:18:55;6.42;90.87
66740;DHT22;53653;52.188;8.602;2023-12-20T07:21:21;6.42;90.93
66740;DHT22;53653;52.188;8.602;2023-12-20T07:23:47;6.42;90.82
66740;DHT22;53653;52.188;8.602;2023-12-20T07:26:12;6.41;90.83
66740;DHT22;53653;52.188;8.602;2023-12-20T07:28:38;6.45;90.71
66740;DHT22;53653;52.188;8.602;2023-12-20T07:31:03;6.42;90.90
66740;DHT22;53653;52.188;8.602;2023-12-20T07:33:29;6.42;90.98
66740;DHT22;53653;52.188;8.602;2023-12-20T07:35:55;6.41;90.81
66740;DHT22;53653;52.188;8.602;2023-12-20T07:38:20;6.44;90.80
66740;DHT22;53653;52.188;8.602;2023-12-20T07:40:46;6.42;90.94
66740;DHT22;53653;52.188;8.602;2023-12-20T07:43:11;6.42;90.93
66740;DHT22;53653;52.188;8.602;2023-12-20T07:45:37;6.41;90.76
66740;DHT22;53653;52.188;8.602;2023-12-20T07:48:03;6.44;90.97
66740;DHT22;53653;52.188;8.602;2023-12-20T07:50:29;6.45;90.55
66740;DHT22;53653;52.188;8.602;2023-12-20T07:52:54;6.45;90.71
66740;DHT22;53653;52.188;8.602;2023-12-20T07:55:20;6.46;90.64
66740;DHT22;53653;52.188;8.602;2023-12-20T07:57:45;6.45;90.53
66740;DHT22;53653;52.188;8.602;2023-12-20T08:00:11;6.45;90.58
66740;DHT22;53653;52.188;8.602;2023-12-20T08:02:37;6.41;90.84
66740;DHT22;53653;52.188;8.602;2023-12-20T08:05:03;6.46;90.89
66740;DHT22;53653;52.188;8.602;2023-12-20T08:07:29;6.49;90.82
66740;DHT22;53653;52.188;8.602;2023-12-20T08:09:54;6.48;90.84
66740;DHT22;53653;52.188;8.602;2023-12-20T08:12:22;6.48;90.75
66740;DHT22;53653;52.188;8.602;2023-12-20T08:14:47;6.46;90.82
66740;DHT22;53653;52.188;8.602;2023-12-20T08:17:13;6.46;90.71
66740;DHT22;53653;52.188;8.602;2023-12-20T08:19:41;6.45;90.75
66740;DHT22;53653;52.188;8.602;2023-12-20T08:22:07;6.51;90.45
66740;DHT22;53653;52.188;8.602;2023-12-20T08:24:32;6.49;90.26
66740;DHT22;53653;52.188;8.602;2023-12-20T08:26:57;6.48;90.18
66740;DHT22;53653;52.188;8.602;2023-12-20T08:29:23;6.52;89.98
66740;DHT22;53653;52.188;8.602;2023-12-20T08:31:52;6.51;90.19
66740;DHT22;53653;52.188;8.602;2023-12-20T08:34:18;6.53;90.04
66740;DHT22;53653;52.188;8.602;2023-12-20T08:36:44;6.51;90.07
66740;DHT22;53653;52.188;8.602;2023-12-20T08:39:09;6.51;89.95
66740;DHT22;53653;52.188;8.602;2023-12-20T08:41:35;6.52;89.99
66740;DHT22;53653;52.188;8.602;2023-12-20T08:44:02;6.55;89.95
66740;DHT22;53653;52.188;8.602;2023-12-20T08:46:28;6.55;89.95
66740;DHT22;53653;52.188;8.602;2023-12-20T08:48:54;6.53;89.95
66740;DHT22;53653;52.188;8.602;2023-12-20T08:51:19;6.51;90.27
66740;DHT22;53653;52.188;8.602;2023-12-20T08:53:46;6.51;90.16
66740;DHT22;53653;52.188;8.602;2023-12-20T08:56:13;6.55;90.26
66740;DHT22;53653;52.188;8.602;2023-12-20T08:58:38;6.58;90.20
66740;DHT22;53653;52.188;8.602;2023-12-20T09:01:03;6.62;90.17
66740;DHT22;53653;52.188;8.602;2023-12-20T09:03:29;6.56;90.57
66740;DHT22;53653;52.188;8.602;2023-12-20T09:05:54;6.55;90.39
66740;DHT22;53653;52.188;8.602;2023-12-20T09:08:20;6.59;90.28
66740;DHT22;53653;52.188;8.602;2023-12-20T09:10:45;6.61;90.36
66740;DHT22;53653;52.188;8.602;2023-12-20T09:13:11;6.62;90.28
66740;DHT22;53653;52.188;8.602;2023-12-20T09:15:36;6.61;90.58
66740;DHT22;53653;52.188;8.602;2023-12-20T09:18:02;6.65;90.55
66740;DHT22;53653;52.188;8.602;2023-12-20T09:20:27;6.71;90.32
66740;DHT22;53653;52.188;8.602;2023-12-20T09:22:53;6.71;90.30
66740;DHT22;53653;52.188;8.602;2023-12-20T09:25:19;6.73;90.56
66740;DHT22;53653;52.188;8.602;2023-12-20T09:27:44;6.75;90.61
66740;DHT22;53653;52.188;8.602;2023-12-20T09:30:10;6.72;90.85
66740;DHT22;53653;52.188;8.602;2023-12-20T09:32:35;6.76;90.98
66740;DHT22;53653;52.188;8.602;2023-12-20T09:35:01;6.72;91.21
66740;DHT22;53653;52.188;8.602;2023-12-20T09:37:27;6.76;91.25
66740;DHT22;53653;52.188;8.602;2023-12-20T09:39:53;6.78;91.36
66740;DHT22;53653;52.188;8.602;2023-12-20T09:45:14;6.73;91.58
66740;DHT22;53653;52.188;8.602;2023-12-20T09:47:43;6.75;91.55
66740;DHT22;53653;52.188;8.602;2023-12-20T09:50:09;6.82;91.60
66740;DHT22;53653;52.188;8.602;2023-12-20T09:52:36;6.83;91.35
66740;DHT22;53653;52.188;8.602;2023-12-20T09:55:03;6.85;91.18
66740;DHT22;53653;52.188;8.602;2023-12-20T09:57:31;6.89;91.08
66740;DHT22;53653;52.188;8.602;2023-12-20T09:59:57;6.95;90.96
66740;DHT22;53653;52.188;8.602;2023-12-20T10:02:24;6.93;90.79
66740;DHT22;53653;52.188;8.602;2023-12-20T10:04:52;6.92;91.08
66740;DHT22;53653;52.188;8.602;2023-12-20T10:07:18;6.92;91.20
66740;DHT22;53653;52.188;8.602;2023-12-20T10:09:44;6.93;91.40
66740;DHT22;53653;52.188;8.602;2023-12-20T10:12:09;6.89;91.73
66740;DHT22;53653;52.188;8.602;2023-12-20T10:14:35;6.82;91.78
66740;DHT22;53653;52.188;8.602;2023-12-20T10:17:04;6.85;91.86
66740;DHT22;53653;52.188;8.602;2023-12-20T10:19:31;6.83;91.94
66740;DHT22;53653;52.188;8.602;2023-12-20T10:21:59;6.82;92.03
66740;DHT22;53653;52.188;8.602;2023-12-20T10:24:24;6.87;92.11
66740;DHT22;53653;52.188;8.602;2023-12-20T10:27:01;6.86;92.32
66740;DHT22;53653;52.188;8.602;2023-12-20T10:29:32;6.82;92.56
66740;DHT22;53653;52.188;8.602;2023-12-20T10:31:57;6.83;92.63
66740;DHT22;53653;52.188;8.602;2023-12-20T10:34:23;6.79;92.82
66740;DHT22;53653;52.188;8.602;2023-12-20T10:36:49;6.80;92.98
66740;DHT22;53653;52.188;8.602;2023-12-20T10:39:15;6.80;93.02
66740;DHT22;53653;52.188;8.602;2023-12-20T10:41:40;6.80;93.12
66740;DHT22;53653;52.188;8.602;2023-12-20T10:44:08;6.79;92.99
66740;DHT22;53653;52.188;8.602;2023-12-20T10:46:36;6.82;93.10
66740;DHT22;53653;52.188;8.602;2023-12-20T10:49:05;6.87;92.86
66740;DHT22;53653;52.188;8.602;2023-12-20T10:51:31;6.89;92.81
66740;DHT22;53653;52.188;8.602;2023-12-20T10:53:56;6.92;92.83
66740;DHT22;53653;52.188;8.602;2023-12-20T10:56:22;6.90;92.78
66740;DHT22;53653;52.188;8.602;2023-12-20T10:58:51;7.06;92.49
66740;DHT22;53653;52.188;8.602;2023-12-20T11:01:18;7.24;91.89
66740;DHT22;53653;52.188;8.602;2023-12-20T11:03:51;7.41;90.54
66740;DHT22;53653;52.188;8.602;2023-12-20T11:06:33;7.76;89.77
66740;DHT22;53653;52.188;8.602;2023-12-20T11:09:11;8.06;88.78
66740;DHT22;53653;52.188;8.602;2023-12-20T11:14:19;8.05;87.52
66740;DHT22;53653;52.188;8.602;2023-12-20T11:16:45;8.17;87.08
66740;DHT22;53653;52.188;8.602;2023-12-20T11:19:11;8.45;86.86
66740;DHT22;53653;52.188;8.602;2023-12-20T11:21:39;8.23;87.00
66740;DHT22;53653;52.188;8.602;2023-12-20T11:24:05;8.07;87.46
66740;DHT22;53653;52.188;8.602;2023-12-20T11:26:31;7.83;88.07
66740;DHT22;53653;52.188;8.602;2023-12-20T11:32:04;7.65;88.77
66740;DHT22;53653;52.188;8.602;2023-12-20T11:34:51;7.62;89.04
66740;DHT22;53653;52.188;8.602;2023-12-20T11:37:19;7.52;88.64
66740;DHT22;53653;52.188;8.602;2023-12-20T11:39:45;7.58;88.74
66740;DHT22;53653;52.188;8.602;2023-12-20T11:42:10;7.66;88.25
66740;DHT22;53653;52.188;8.602;2023-12-20T11:44:37;7.66;88.51
66740;DHT22;53653;52.188;8.602;2023-12-20T11:47:03;7.58;88.21
66740;DHT22;53653;52.188;8.602;2023-12-20T11:49:28;7.57;88.14
66740;DHT22;53653;52.188;8.602;2023-12-20T11:51:56;7.54;88.25
66740;DHT22;53653;52.188;8.602;2023-12-20T11:54:22;7.51;88.55
66740;DHT22;53653;52.188;8.602;2023-12-20T11:56:48;7.52;88.89
66740;DHT22;53653;52.188;8.602;2023-12-20T11:59:14;7.52;88.86
66740;DHT22;53653;52.188;8.602;2023-12-20T12:01:40;7.48;89.52
66740;DHT22;53653;52.188;8.602;2023-12-20T12:04:12;7.45;89.46
66740;DHT22;53653;52.188;8.602;2023-12-20T12:06:38;7.37;90.16
66740;DHT22;53653;52.188;8.602;2023-12-20T12:09:03;7.30;90.93
66740;DHT22;53653;52.188;8.602;2023-12-20T12:11:29;7.27;91.50
66740;DHT22;53653;52.188;8.602;2023-12-20T12:13:55;7.20;91.88
66740;DHT22;53653;52.188;8.602;2023-12-20T12:16:21;7.16;92.20
66740;DHT22;53653;52.188;8.602;2023-12-20T12:18:55;7.16;92.66
66740;DHT22;53653;52.188;8.602;2023-12-20T12:21:20;7.14;92.86
66740;DHT22;53653;52.188;8.602;2023-12-20T12:23:46;7.07;93.25
66740;DHT22;53653;52.188;8.602;2023-12-20T12:26:12;7.06;93.12
66740;DHT22;53653;52.188;8.602;2023-12-20T12:28:40;6.93;93.31
66740;DHT22;53653;52.188;8.602;2023-12-20T12:31:07;6.90;93.50
66740;DHT22;53653;52.188;8.602;2023-12-20T12:33:33;6.89;93.96
66740;DHT22;53653;52.188;8.602;2023-12-20T12:36:02;6.82;93.64
66740;DHT22;53653;52.188;8.602;2023-12-20T12:38:30;6.82;93.63
66740;DHT22;53653;52.188;8.602;2023-12-20T12:40:55;6.66;92.52
66740;DHT22;53653;52.188;8.602;2023-12-20T12:43:21;6.61;91.89
66740;DHT22;53653;52.188;8.602;2023-12-20T12:45:48;6.64;92.13
66740;DHT22;53653;52.188;8.602;2023-12-20T12:48:14;6.64;91.91
66740;DHT22;53653;52.188;8.602;2023-12-20T12:50:40;6.62;91.64
66740;DHT22;53653;52.188;8.602;2023-12-20T12:53:05;6.55;91.25
66740;DHT22;53653;52.188;8.602;2023-12-20T12:55:31;6.53;90.80
66740;DHT22;53653;52.188;8.602;2023-12-20T12:57:57;6.51;90.84
66740;DHT22;53653;52.188;8.602;2023-12-20T13:00:22;6.49;90.65
66740;DHT22;53653;52.188;8.602;2023-12-20T13:02:48;6.45;90.18
66740;DHT22;53653;52.188;8.602;2023-12-20T13:05:14;6.44;90.38
66740;DHT22;53653;52.188;8.602;2023-12-20T13:07:39;6.48;90.24
66740;DHT22;53653;52.188;8.602;2023-12-20T13:10:05;6.48;90.11
66740;DHT22;53653;52.188;8.602;2023-12-20T13:12:31;6.45;89.84
66740;DHT22;53653;52.188;8.602;2023-12-20T13:14:57;6.48;89.70
66740;DHT22;53653;52.188;8.602;2023-12-20T13:17:23;6.44;89.78
66740;DHT22;53653;52.188;8.602;2023-12-20T13:19:48;6.48;89.89
66740;DHT22;53653;52.188;8.602;2023-12-20T13:22:15;6.52;89.55
66740;DHT22;53653;52.188;8.602;2023-12-20T13:24:41;6.56;89.26
66740;DHT22;53653;52.188;8.602;2023-12-20T13:27:09;6.56;89.02
66740;DHT22;53653;52.188;8.602;2023-12-20T13:29:35;6.58;89.15
66740;DHT22;53653;52.188;8.602;2023-12-20T13:32:01;6.61;89.06
66740;DHT22;53653;52.188;8.602;2023-12-20T13:34:26;6.64;88.98
66740;DHT22;53653;52.188;8.602;2023-12-20T13:36:52;6.65;89.07
66740;DHT22;53653;52.188;8.602;2023-12-20T13:39:17;6.64;89.08
66740;DHT22;53653;52.188;8.602;2023-12-20T13:41:43;6.68;89.08
66740;DHT22;53653;52.188;8.602;2023-12-20T13:44:08;6.65;89.21
66740;DHT22;53653;52.188;8.602;2023-12-20T13:46:34;6.68;89.00
66740;DHT22;53653;52.188;8.602;2023-12-20T13:49:01;6.66;89.12
66740;DHT22;53653;52.188;8.602;2023-12-20T13:51:27;6.71;89.12
66740;DHT22;53653;52.188;8.602;2023-12-20T13:53:52;6.68;89.11
66740;DHT22;53653;52.188;8.602;2023-12-20T13:56:18;6.69;89.33
66740;DHT22;53653;52.188;8.602;2023-12-20T13:58:45;6.69;89.16
66740;DHT22;53653;52.188;8.602;2023-12-20T14:01:12;6.69;88.98
66740;DHT22;53653;52.188;8.602;2023-12-20T14:03:37;6.65;88.79
66740;DHT22;53653;52.188;8.602;2023-12-20T14:06:03;6.61;88.74
66740;DHT22;53653;52.188;8.602;2023-12-20T14:08:29;6.56;88.46
66740;DHT22;53653;52.188;8.602;2023-12-20T14:10:54;6.58;88.63
66740;DHT22;53653;52.188;8.602;2023-12-20T14:13:20;6.58;88.57
66740;DHT22;53653;52.188;8.602;2023-12-20T14:15:46;6.53;88.76
66740;DHT22;53653;52.188;8.602;2023-12-20T14:18:12;6.58;88.74
66740;DHT22;53653;52.188;8.602;2023-12-20T14:20:40;6.61;88.48
66740;DHT22;53653;52.188;8.602;2023-12-20T14:23:08;6.61;88.39
66740;DHT22;53653;52.188;8.602;2023-12-20T14:25:35;6.56;88.31
66740;DHT22;53653;52.188;8.602;2023-12-20T14:28:03;6.61;88.23
66740;DHT22;53653;52.188;8.602;2023-12-20T14:30:29;6.62;88.30
66740;DHT22;53653;52.188;8.602;2023-12-20T14:32:54;6.65;88.10
66740;DHT22;53653;52.188;8.602;2023-12-20T14:35:20;6.62;88.38
66740;DHT22;53653;52.188;8.602;2023-12-20T14:37:45;6.65;88.28
66740;DHT22;53653;52.188;8.602;2023-12-20T14:40:13;6.64;88.50
66740;DHT22;53653;52.188;8.602;2023-12-20T14:42:42;6.68;88.61
66740;DHT22;53653;52.188;8.602;2023-12-20T14:45:09;6.62;88.77
66740;DHT22;53653;52.188;8.602;2023-12-20T14:47:34;6.61;89.17
66740;DHT22;53653;52.188;8.602;2023-12-20T14:50:03;6.59;89.34
66740;DHT22;53653;52.188;8.602;2023-12-20T14:52:29;6.52;89.81
66740;DHT22;53653;52.188;8.602;2023-12-20T14:54:55;6.52;89.86
66740;DHT22;53653;52.188;8.602;2023-12-20T14:57:20;6.48;90.29
66740;DHT22;53653;52.188;8.602;2023-12-20T14:59:46;6.52;90.12
66740;DHT22;53653;52.188;8.602;2023-12-20T15:02:11;6.42;90.56
66740;DHT22;53653;52.188;8.602;2023-12-20T15:04:37;6.45;90.48
66740;DHT22;53653;52.188;8.602;2023-12-20T15:07:03;6.41;90.67
66740;DHT22;53653;52.188;8.602;2023-12-20T15:09:31;6.44;90.81
66740;DHT22;53653;52.188;8.602;2023-12-20T15:11:56;6.41;90.84
66740;DHT22;53653;52.188;8.602;2023-12-20T15:14:22;6.37;90.75
66740;DHT22;53653;52.188;8.602;2023-12-20T15:16:48;6.37;90.77
66740;DHT22;53653;52.188;8.602;2023-12-20T15:19:14;6.38;90.94
66740;DHT22;53653;52.188;8.602;2023-12-20T15:21:39;6.41;90.99
66740;DHT22;53653;52.188;8.602;2023-12-20T15:24:09;6.42;90.91
66740;DHT22;53653;52.188;8.602;2023-12-20T15:26:42;6.42;91.13
66740;DHT22;53653;52.188;8.602;2023-12-20T15:29:09;6.38;91.17
66740;DHT22;53653;52.188;8.602;2023-12-20T15:31:36;6.41;91.26
66740;DHT22;53653;52.188;8.602;2023-12-20T15:34:02;6.35;91.47
66740;DHT22;53653;52.188;8.602;2023-12-20T15:36:28;6.34;91.85
66740;DHT22;53653;52.188;8.602;2023-12-20T15:38:54;6.34;91.86
66740;DHT22;53653;52.188;8.602;2023-12-20T15:41:20;6.39;91.70
66740;DHT22;53653;52.188;8.602;2023-12-20T15:43:46;6.35;92.02
66740;DHT22;53653;52.188;8.602;2023-12-20T15:46:11;6.41;92.11